createdAt,value
2022-11-06T00:01:14.867Z,4.20
2022-11-06T00:03:45.112Z,4.10
2022-11-06T00:06:36.407Z,4.10
2022-11-06T00:09:09.274Z,4.10
2022-11-06T00:11:39.479Z,4.02
2022-11-06T00:14:09.122Z,4.00
2022-11-06T00:16:39.888Z,4.00
2022-11-06T00:19:09.367Z,4.00
2022-11-06T00:21:38.766Z,4.00
2022-11-06T00:24:09.634Z,4.00
2022-11-06T00:26:38.185Z,3.98
2022-11-06T00:29:07.592Z,3.92
2022-11-06T00:31:37.816Z,3.90
2022-11-06T00:34:07.902Z,4.00
2022-11-06T00:36:36.929Z,3.94
2022-11-06T00:39:05.412Z,3.90
2022-11-06T00:41:33.993Z,3.90
2022-11-06T00:44:03.704Z,3.80
2022-11-06T00:46:32.604Z,3.80
2022-11-06T00:49:01.080Z,3.76
2022-11-06T00:51:35.938Z,3.80
2022-11-06T00:54:09.482Z,3.80
2022-11-06T00:56:38.196Z,3.80
2022-11-06T00:59:11.047Z,3.74
2022-11-06T01:01:43.495Z,3.70
2022-11-06T01:04:21.257Z,3.70
2022-11-06T01:06:53.709Z,3.70
2022-11-06T01:09:25.845Z,3.64
2022-11-06T01:12:14.541Z,3.60
2022-11-06T01:14:44.572Z,3.60
2022-11-06T01:17:13.988Z,3.60
2022-11-06T01:19:42.662Z,3.60
2022-11-06T01:22:11.247Z,3.60
2022-11-06T01:24:40.248Z,3.60
2022-11-06T01:27:26.112Z,3.60
2022-11-06T01:29:57.100Z,3.60
2022-11-06T01:32:25.555Z,3.52
2022-11-06T01:34:54.268Z,3.50
2022-11-06T01:37:22.826Z,3.50
2022-11-06T01:39:51.618Z,3.50
2022-11-06T01:42:22.169Z,3.50
2022-11-06T01:45:21.453Z,3.50
2022-11-06T01:47:50.343Z,3.50
2022-11-06T01:50:19.849Z,3.58
2022-11-06T01:52:50.951Z,3.60
2022-11-06T01:55:32.378Z,3.60
2022-11-06T01:58:05.522Z,3.58
2022-11-06T02:00:34.215Z,3.60
2022-11-06T02:03:03.796Z,3.60
2022-11-06T02:05:32.862Z,3.52
2022-11-06T02:08:01.750Z,3.52
2022-11-06T02:10:31.358Z,3.50
2022-11-06T02:13:11.922Z,3.50
2022-11-06T02:16:03.137Z,3.52
2022-11-06T02:18:57.426Z,3.54
2022-11-06T02:21:35.122Z,3.50
2022-11-06T02:24:06.574Z,3.50
2022-11-06T02:26:50.416Z,3.50
2022-11-06T02:29:28.525Z,3.40
2022-11-06T02:32:00.554Z,3.40
2022-11-06T02:34:30.401Z,3.40
2022-11-06T02:37:08.100Z,3.40
2022-11-06T02:39:39.917Z,3.40
2022-11-06T02:42:10.492Z,3.40
2022-11-06T02:44:40.270Z,3.40
2022-11-06T02:47:13.395Z,3.40
2022-11-06T02:50:01.029Z,3.32
2022-11-06T02:52:45.686Z,3.30
2022-11-06T02:55:29.734Z,3.34
2022-11-06T02:58:26.478Z,3.40
2022-11-06T03:01:08.273Z,3.40
2022-11-06T03:03:42.848Z,3.36
2022-11-06T03:06:34.524Z,3.36
2022-11-06T03:09:15.805Z,3.34
2022-11-06T03:11:45.959Z,3.40
2022-11-06T03:14:42.158Z,3.40
2022-11-06T03:17:54.161Z,3.40
2022-11-06T03:21:08.109Z,3.40
2022-11-06T03:23:56.106Z,3.40
2022-11-06T03:26:43.475Z,3.40
2022-11-06T03:29:49.128Z,3.40
2022-11-06T03:32:52.412Z,3.40
2022-11-06T03:35:49.025Z,3.40
2022-11-06T03:38:28.403Z,3.40
2022-11-06T03:41:08.765Z,3.40
2022-11-06T03:43:42.729Z,3.42
2022-11-06T03:46:19.758Z,3.50
2022-11-06T03:49:07.184Z,3.50
2022-11-06T03:51:50.208Z,3.50
2022-11-06T03:54:29.543Z,3.50
2022-11-06T03:57:10.213Z,3.40
2022-11-06T03:59:46.785Z,3.46
2022-11-06T04:02:18.409Z,3.50
2022-11-06T04:05:00.646Z,3.50
2022-11-06T04:08:09.795Z,3.50
2022-11-06T04:11:03.042Z,3.50
2022-11-06T04:13:53.953Z,3.50
2022-11-06T04:16:23.818Z,3.60
2022-11-06T04:18:52.722Z,3.60
2022-11-06T04:22:06.306Z,3.60
2022-11-06T04:25:25.985Z,3.70
2022-11-06T04:28:15.947Z,3.80
2022-11-06T04:31:02.600Z,3.80
2022-11-06T04:34:15.498Z,3.90
2022-11-06T04:36:56.894Z,3.90
2022-11-06T04:39:59.887Z,4.00
2022-11-06T04:42:50.575Z,4.00
2022-11-06T04:45:47.427Z,4.10
2022-11-06T04:48:18.264Z,4.20
2022-11-06T04:50:53.250Z,4.30
2022-11-06T04:53:23.387Z,4.40
2022-11-06T04:56:01.125Z,4.46
2022-11-06T04:58:29.598Z,4.50
2022-11-06T05:00:58.238Z,4.60
2022-11-06T05:03:26.974Z,4.70
2022-11-06T05:05:55.554Z,4.78
2022-11-06T05:08:24.446Z,4.80
2022-11-06T05:10:53.031Z,4.90
2022-11-06T05:13:21.723Z,4.90
2022-11-06T05:15:56.241Z,4.96
2022-11-06T05:18:26.345Z,5.00
2022-11-06T05:21:13.685Z,5.00
2022-11-06T05:23:43.225Z,5.10
2022-11-06T05:26:12.800Z,5.10
2022-11-06T05:28:41.413Z,5.10
2022-11-06T05:31:09.970Z,5.16
2022-11-06T05:33:38.657Z,5.20
2022-11-06T05:36:08.264Z,5.20
2022-11-06T05:38:36.746Z,5.20
2022-11-06T05:41:05.728Z,5.20
2022-11-06T05:43:34.286Z,5.20
2022-11-06T05:46:02.910Z,5.20
2022-11-06T05:48:31.596Z,5.20
2022-11-06T05:51:06.023Z,5.20
2022-11-06T05:53:37.334Z,5.20
2022-11-06T05:56:06.799Z,5.20
2022-11-06T05:58:35.358Z,5.20
2022-11-06T06:01:05.420Z,5.20
2022-11-06T06:03:33.856Z,5.20
2022-11-06T06:06:02.338Z,5.20
2022-11-06T06:08:31.127Z,5.20
2022-11-06T06:10:59.710Z,5.20
2022-11-06T06:13:28.302Z,5.20
2022-11-06T06:16:01.831Z,5.20
2022-11-06T06:18:30.377Z,5.20
2022-11-06T06:21:02.246Z,5.20
2022-11-06T06:23:30.933Z,5.26
2022-11-06T06:25:59.528Z,5.30
2022-11-06T06:28:28.823Z,5.30
2022-11-06T06:31:01.487Z,5.40
2022-11-06T06:33:30.488Z,5.56
2022-11-06T06:35:59.279Z,5.70
2022-11-06T06:38:27.861Z,5.80
2022-11-06T06:40:56.446Z,6.00
2022-11-06T06:43:25.029Z,6.10
2022-11-06T06:45:54.227Z,6.18
2022-11-06T06:48:22.811Z,6.20
2022-11-06T06:50:51.398Z,6.30
2022-11-06T06:53:19.983Z,6.40
2022-11-06T06:55:48.570Z,6.44
2022-11-06T06:58:18.191Z,6.50
2022-11-06T07:00:47.757Z,6.60
2022-11-06T07:03:16.366Z,6.62
2022-11-06T07:05:44.950Z,6.70
2022-11-06T07:08:13.838Z,6.80
2022-11-06T07:10:42.630Z,6.82
2022-11-06T07:13:11.929Z,6.90
2022-11-06T07:15:40.721Z,7.00
2022-11-06T07:18:09.431Z,7.00
2022-11-06T07:20:40.042Z,7.18
2022-11-06T07:23:09.448Z,7.40
2022-11-06T07:25:37.925Z,7.60
2022-11-06T07:28:08.463Z,7.90
2022-11-06T07:30:37.245Z,8.16
2022-11-06T07:33:06.751Z,8.40
2022-11-06T07:35:35.846Z,8.68
2022-11-06T07:38:07.140Z,9.00
2022-11-06T07:40:36.703Z,9.30
2022-11-06T07:43:10.501Z,9.58
2022-11-06T07:45:39.719Z,9.90
2022-11-06T07:48:08.292Z,10.20
2022-11-06T07:50:36.876Z,10.50
2022-11-06T07:53:05.436Z,10.80
2022-11-06T07:55:39.173Z,11.02
2022-11-06T07:58:10.749Z,11.20
2022-11-06T08:00:39.556Z,11.40
2022-11-06T08:03:08.092Z,11.64
2022-11-06T08:05:36.677Z,11.74
2022-11-06T08:08:05.574Z,11.80
2022-11-06T08:10:34.358Z,12.10
2022-11-06T08:13:02.946Z,12.30
2022-11-06T08:15:31.529Z,12.40
2022-11-06T08:18:00.726Z,12.54
2022-11-06T08:20:29.213Z,12.60
2022-11-06T08:23:03.215Z,12.70
2022-11-06T08:25:32.934Z,12.90
2022-11-06T08:28:03.022Z,13.06
2022-11-06T08:30:32.456Z,13.10
2022-11-06T08:33:08.263Z,13.28
2022-11-06T08:35:37.937Z,13.40
2022-11-06T08:38:06.502Z,13.60
2022-11-06T08:40:38.751Z,13.80
2022-11-06T08:43:10.682Z,13.82
2022-11-06T08:45:42.119Z,14.00
2022-11-06T08:48:11.556Z,14.20
2022-11-06T08:50:41.844Z,14.20
2022-11-06T08:53:11.453Z,14.22
2022-11-06T08:55:40.313Z,14.20
2022-11-06T08:58:09.005Z,14.20
2022-11-06T09:00:37.893Z,14.30
2022-11-06T09:03:11.693Z,14.56
2022-11-06T09:05:42.541Z,14.52
2022-11-06T09:08:12.149Z,14.62
2022-11-06T09:10:43.326Z,14.84
2022-11-06T09:13:12.988Z,14.90
2022-11-06T09:15:41.911Z,14.90
2022-11-06T09:18:12.458Z,14.90
2022-11-06T09:20:41.064Z,14.80
2022-11-06T09:23:14.854Z,14.90
2022-11-06T09:25:43.704Z,14.90
2022-11-06T09:28:12.801Z,15.00
2022-11-06T09:30:41.386Z,15.00
2022-11-06T09:33:13.478Z,14.90
2022-11-06T09:35:42.574Z,14.90
2022-11-06T09:38:13.717Z,14.90
2022-11-06T09:41:04.601Z,15.06
2022-11-06T09:44:06.288Z,15.20
2022-11-06T09:46:44.638Z,15.30
2022-11-06T09:49:40.601Z,15.40
2022-11-06T09:52:34.071Z,15.50
2022-11-06T09:55:21.908Z,15.40
2022-11-06T09:58:22.133Z,15.20
2022-11-06T10:00:54.525Z,15.10
2022-11-06T10:03:59.237Z,15.00
2022-11-06T10:06:29.276Z,14.90
2022-11-06T10:09:06.346Z,14.90
2022-11-06T10:11:55.917Z,14.80
2022-11-06T10:14:39.782Z,14.74
2022-11-06T10:17:54.935Z,14.70
2022-11-06T10:20:51.168Z,14.60
2022-11-06T10:23:35.009Z,14.70
2022-11-06T10:26:20.388Z,14.70
2022-11-06T10:29:26.143Z,14.80
2022-11-06T10:32:07.016Z,14.90
2022-11-06T10:34:50.551Z,14.90
2022-11-06T10:37:26.510Z,14.80
2022-11-06T10:39:56.936Z,14.70
2022-11-06T10:42:38.198Z,14.60
2022-11-06T10:45:15.346Z,14.70
2022-11-06T10:47:55.650Z,14.70
2022-11-06T10:50:42.782Z,14.60
2022-11-06T10:53:40.347Z,14.60
2022-11-06T10:56:19.976Z,14.60
2022-11-06T10:58:50.340Z,14.50
2022-11-06T11:01:18.942Z,14.60
2022-11-06T11:03:48.695Z,14.68
2022-11-06T11:06:18.055Z,14.60
2022-11-06T11:08:49.973Z,14.60
2022-11-06T11:11:25.995Z,14.58
2022-11-06T11:13:57.285Z,14.50
2022-11-06T11:16:35.453Z,14.60
2022-11-06T11:19:35.832Z,14.60
2022-11-06T11:22:17.208Z,14.60
2022-11-06T11:25:05.153Z,14.50
2022-11-06T11:27:45.581Z,14.50
2022-11-06T11:30:26.869Z,14.54
2022-11-06T11:32:59.702Z,14.50
2022-11-06T11:35:31.484Z,14.50
2022-11-06T11:38:15.698Z,14.60
2022-11-06T11:40:44.883Z,14.60
2022-11-06T11:43:30.819Z,14.50
2022-11-06T11:46:08.584Z,14.50
2022-11-06T11:48:52.353Z,14.48
2022-11-06T11:51:30.015Z,14.40
2022-11-06T11:54:12.945Z,14.30
2022-11-06T11:57:04.593Z,14.30
2022-11-06T11:59:55.502Z,14.36
2022-11-06T12:02:46.342Z,14.30
2022-11-06T12:05:21.366Z,14.30
2022-11-06T12:07:58.141Z,14.30
2022-11-06T12:10:29.848Z,14.30
2022-11-06T12:13:01.704Z,14.40
2022-11-06T12:15:54.147Z,14.30
2022-11-06T12:18:42.597Z,14.30
2022-11-06T12:21:30.975Z,14.20
2022-11-06T12:24:10.584Z,14.20
2022-11-06T12:26:43.482Z,14.20
2022-11-06T12:29:33.259Z,14.20
2022-11-06T12:32:14.235Z,14.20
2022-11-06T12:34:59.929Z,14.20
2022-11-06T12:38:19.410Z,14.10
2022-11-06T12:41:28.738Z,14.00
2022-11-06T12:43:58.757Z,14.00
2022-11-06T12:46:53.763Z,14.00
2022-11-06T12:50:08.625Z,14.00
2022-11-06T12:53:08.447Z,14.00
2022-11-06T12:55:50.133Z,13.90
2022-11-06T12:58:24.349Z,13.90
2022-11-06T13:01:11.215Z,14.00
2022-11-06T13:04:18.248Z,14.02
2022-11-06T13:07:27.282Z,14.00
2022-11-06T13:10:50.144Z,14.00
2022-11-06T13:13:36.235Z,14.10
2022-11-06T13:16:13.932Z,14.10
2022-11-06T13:19:05.972Z,14.08
2022-11-06T13:21:53.294Z,14.00
2022-11-06T13:24:38.159Z,14.00
2022-11-06T13:27:39.408Z,14.00
2022-11-06T13:30:21.985Z,14.00
2022-11-06T13:33:10.574Z,14.00
2022-11-06T13:35:43.457Z,14.00
2022-11-06T13:38:29.450Z,13.90
2022-11-06T13:41:05.819Z,13.90
2022-11-06T13:43:49.353Z,13.80
2022-11-06T13:46:59.409Z,13.70
2022-11-06T13:49:28.607Z,13.70
2022-11-06T13:52:08.538Z,13.70
2022-11-06T13:54:51.889Z,13.78
2022-11-06T13:57:57.747Z,13.80
2022-11-06T14:00:35.551Z,13.70
2022-11-06T14:03:37.927Z,13.70
2022-11-06T14:06:21.051Z,13.60
2022-11-06T14:09:00.759Z,13.60
2022-11-06T14:11:42.591Z,13.60
2022-11-06T14:14:37.390Z,13.50
2022-11-06T14:17:14.531Z,13.40
2022-11-06T14:20:41.838Z,13.40
2022-11-06T14:23:29.159Z,13.40
2022-11-06T14:26:05.313Z,13.40
2022-11-06T14:28:41.862Z,13.38
2022-11-06T14:31:14.640Z,13.30
2022-11-06T14:33:59.674Z,13.20
2022-11-06T14:36:38.677Z,13.20
2022-11-06T14:39:13.643Z,13.10
2022-11-06T14:41:45.368Z,13.10
2022-11-06T14:44:33.715Z,13.00
2022-11-06T14:47:07.593Z,12.92
2022-11-06T14:49:46.616Z,12.80
2022-11-06T14:52:17.324Z,12.70
2022-11-06T14:54:55.191Z,12.60
2022-11-06T14:57:50.687Z,12.50
2022-11-06T15:00:31.884Z,12.46
2022-11-06T15:03:01.446Z,12.40
2022-11-06T15:05:31.565Z,12.30
2022-11-06T15:08:07.048Z,12.20
2022-11-06T15:10:45.073Z,12.10
2022-11-06T15:13:16.842Z,12.00
2022-11-06T15:15:52.896Z,12.00
2022-11-06T15:18:24.922Z,11.90
2022-11-06T15:20:57.671Z,11.90
2022-11-06T15:23:42.858Z,11.80
2022-11-06T15:26:53.276Z,11.70
2022-11-06T15:29:29.527Z,11.64
2022-11-06T15:32:23.193Z,11.60
2022-11-06T15:35:21.960Z,11.50
2022-11-06T15:38:21.816Z,11.30
2022-11-06T15:40:53.886Z,11.20
2022-11-06T15:43:36.151Z,11.10
2022-11-06T15:46:22.092Z,11.00
2022-11-06T15:49:18.419Z,10.90
2022-11-06T15:51:56.936Z,10.70
2022-11-06T15:54:43.802Z,10.60
2022-11-06T15:57:27.382Z,10.50
2022-11-06T16:00:19.631Z,10.40
2022-11-06T16:02:49.288Z,10.24
2022-11-06T16:05:20.082Z,10.20
2022-11-06T16:07:50.939Z,10.10
2022-11-06T16:10:22.287Z,10.00
2022-11-06T16:12:53.816Z,10.00
2022-11-06T16:15:56.699Z,9.90
2022-11-06T16:18:25.281Z,9.80
2022-11-06T16:21:01.341Z,9.80
2022-11-06T16:23:40.266Z,9.70
2022-11-06T16:26:14.353Z,9.62
2022-11-06T16:28:49.361Z,9.60
2022-11-06T16:31:22.927Z,9.50
2022-11-06T16:33:58.016Z,9.48
2022-11-06T16:36:30.096Z,9.40
2022-11-06T16:39:17.239Z,9.30
2022-11-06T16:41:58.040Z,9.20
2022-11-06T16:44:31.769Z,9.20
2022-11-06T16:47:22.836Z,9.10
2022-11-06T16:49:54.664Z,9.10
2022-11-06T16:52:35.048Z,9.08
2022-11-06T16:55:18.570Z,9.00
2022-11-06T16:57:57.582Z,9.00
2022-11-06T17:00:33.720Z,9.00
2022-11-06T17:03:07.102Z,9.00
2022-11-06T17:05:38.813Z,9.02
2022-11-06T17:08:19.602Z,9.00
2022-11-06T17:10:51.171Z,9.00
2022-11-06T17:13:28.543Z,9.00
2022-11-06T17:16:02.056Z,9.00
2022-11-06T17:18:39.019Z,8.98
2022-11-06T17:21:17.507Z,8.90
2022-11-06T17:23:47.529Z,8.90
2022-11-06T17:26:24.373Z,8.90
2022-11-06T17:28:53.239Z,8.88
2022-11-06T17:31:24.347Z,8.80
2022-11-06T17:33:53.981Z,8.70
2022-11-06T17:36:29.872Z,8.66
2022-11-06T17:38:59.399Z,8.60
2022-11-06T17:41:31.122Z,8.60
2022-11-06T17:44:07.203Z,8.60
2022-11-06T17:46:43.290Z,8.50
2022-11-06T17:49:17.503Z,8.50
2022-11-06T17:51:53.686Z,8.50
2022-11-06T17:54:25.582Z,8.42
2022-11-06T17:56:57.083Z,8.40
2022-11-06T17:59:26.425Z,8.40
2022-11-06T18:01:56.420Z,8.40
2022-11-06T18:04:28.201Z,8.40
2022-11-06T18:06:56.785Z,8.40
2022-11-06T18:09:26.806Z,8.40
2022-11-06T18:11:56.516Z,8.40
2022-11-06T18:14:27.430Z,8.40
2022-11-06T18:16:56.243Z,8.40
2022-11-06T18:19:26.669Z,8.40
2022-11-06T18:21:55.888Z,8.50
2022-11-06T18:24:25.174Z,8.50
2022-11-06T18:26:54.065Z,8.50
2022-11-06T18:29:22.644Z,8.50
2022-11-06T18:31:51.339Z,8.50
2022-11-06T18:34:21.445Z,8.54
2022-11-06T18:36:50.967Z,8.50
2022-11-06T18:39:19.948Z,8.50
2022-11-06T18:41:49.250Z,8.48
2022-11-06T18:44:18.465Z,8.40
2022-11-06T18:46:47.855Z,8.40
2022-11-06T18:49:16.641Z,8.40
2022-11-06T18:51:45.225Z,8.40
2022-11-06T18:54:14.224Z,8.40
2022-11-06T18:56:42.806Z,8.30
2022-11-06T18:59:16.471Z,8.30
2022-11-06T19:01:45.159Z,8.30
2022-11-06T19:04:14.266Z,8.30
2022-11-06T19:06:43.081Z,8.30
2022-11-06T19:09:11.663Z,8.22
2022-11-06T19:11:40.248Z,8.20
2022-11-06T19:14:08.833Z,8.20
2022-11-06T19:16:37.422Z,8.10
2022-11-06T19:19:07.548Z,8.10
2022-11-06T19:21:36.440Z,8.10
2022-11-06T19:24:06.669Z,8.00
2022-11-06T19:26:36.472Z,8.00
2022-11-06T19:29:08.433Z,7.90
2022-11-06T19:31:38.207Z,7.90
2022-11-06T19:34:08.868Z,7.80
2022-11-06T19:36:37.499Z,7.80
2022-11-06T19:39:07.579Z,7.70
2022-11-06T19:41:36.063Z,7.70
2022-11-06T19:44:04.853Z,7.60
2022-11-06T19:46:35.917Z,7.60
2022-11-06T19:49:08.149Z,7.60
2022-11-06T19:51:43.721Z,7.60
2022-11-06T19:54:12.411Z,7.60
2022-11-06T19:57:27.544Z,7.60
2022-11-06T19:59:30.885Z,7.60
2022-11-06T20:01:59.683Z,7.56
2022-11-06T20:04:28.547Z,7.60
2022-11-06T20:06:57.132Z,7.52
2022-11-06T20:09:25.717Z,7.58
2022-11-06T20:11:54.402Z,7.60
2022-11-06T20:14:23.088Z,7.60
2022-11-06T20:16:51.775Z,7.60
2022-11-06T20:19:20.463Z,7.60
2022-11-06T20:21:49.571Z,7.60
2022-11-06T20:24:18.348Z,7.50
2022-11-06T20:26:47.239Z,7.50
2022-11-06T20:29:15.825Z,7.50
2022-11-06T20:31:44.717Z,7.50
2022-11-06T20:34:13.303Z,7.40
2022-11-06T20:36:41.885Z,7.40
2022-11-06T20:39:10.469Z,7.40
2022-11-06T20:41:38.951Z,7.40
2022-11-06T20:44:07.535Z,7.40
2022-11-06T20:46:36.325Z,7.40
2022-11-06T20:49:05.011Z,7.34
2022-11-06T20:51:42.885Z,7.32
2022-11-06T20:54:22.457Z,7.30
2022-11-06T20:56:51.356Z,7.30
2022-11-06T20:59:20.079Z,7.30
2022-11-06T21:01:49.089Z,7.30
2022-11-06T21:04:18.330Z,7.30
2022-11-06T21:06:47.631Z,7.30
2022-11-06T21:09:17.238Z,7.30
2022-11-06T21:11:45.720Z,7.30
2022-11-06T21:14:14.415Z,7.30
2022-11-06T21:16:43.503Z,7.30
2022-11-06T21:19:12.192Z,7.30
2022-11-06T21:21:41.088Z,7.30
2022-11-06T21:24:09.870Z,7.30
2022-11-06T21:26:39.077Z,7.30
2022-11-06T21:29:11.238Z,7.30
2022-11-06T21:31:45.729Z,7.30
2022-11-06T21:34:19.486Z,7.30
2022-11-06T21:36:48.365Z,7.30
2022-11-06T21:39:19.665Z,7.30
2022-11-06T21:41:48.396Z,7.30
2022-11-06T21:44:18.822Z,7.30
2022-11-06T21:46:47.818Z,7.30
2022-11-06T21:49:16.400Z,7.26
2022-11-06T21:51:45.087Z,7.22
2022-11-06T21:54:32.516Z,7.30
2022-11-06T21:57:01.204Z,7.30
2022-11-06T21:59:30.298Z,7.30
2022-11-06T22:01:59.288Z,7.20
2022-11-06T22:04:28.083Z,7.20
2022-11-06T22:06:56.665Z,7.20
2022-11-06T22:09:26.376Z,7.20
2022-11-06T22:11:55.064Z,7.14
2022-11-06T22:14:23.646Z,7.10
2022-11-06T22:16:52.749Z,7.10
2022-11-06T22:19:21.535Z,7.08
2022-11-06T22:21:50.223Z,7.10
2022-11-06T22:24:18.907Z,7.02
2022-11-06T22:26:47.493Z,7.00
2022-11-06T22:29:16.180Z,7.00
2022-11-06T22:31:44.738Z,7.00
2022-11-06T22:34:13.761Z,7.00
2022-11-06T22:36:42.547Z,7.00
2022-11-06T22:39:11.817Z,7.00
2022-11-06T22:41:40.739Z,7.00
2022-11-06T22:44:10.346Z,7.04
2022-11-06T22:46:39.239Z,7.10
2022-11-06T22:49:08.450Z,7.10
2022-11-06T22:51:37.020Z,7.10
2022-11-06T22:54:06.773Z,7.02
2022-11-06T22:56:35.932Z,7.10
2022-11-06T22:59:10.967Z,7.10
2022-11-06T23:01:42.722Z,7.16
2022-11-06T23:04:17.763Z,7.20
2022-11-06T23:06:47.370Z,7.10
2022-11-06T23:09:16.262Z,7.10
2022-11-06T23:11:47.246Z,7.10
2022-11-06T23:14:16.303Z,7.10
2022-11-06T23:16:57.688Z,7.10
2022-11-06T23:19:30.403Z,7.10
2022-11-06T23:22:18.829Z,7.14
2022-11-06T23:24:48.533Z,7.10
2022-11-06T23:27:17.619Z,7.10
2022-11-06T23:29:46.307Z,7.10
2022-11-06T23:32:15.812Z,7.10
2022-11-06T23:34:44.909Z,7.10
2022-11-06T23:37:13.903Z,7.14
2022-11-06T23:39:42.798Z,7.20
2022-11-06T23:42:19.824Z,7.20
2022-11-06T23:45:28.708Z,7.20
2022-11-06T23:47:57.600Z,7.20
2022-11-06T23:50:26.357Z,7.30
2022-11-06T23:52:55.501Z,7.30
2022-11-06T23:55:24.277Z,7.30
2022-11-06T23:57:52.964Z,7.30
